Ndola, Zambia
Current Conditions -  °F | °C
As of 10:00 AM on Friday 21 Nov 2014 (Local Time) from FWKI Reporting Station
Broken Clouds Broken Clouds  
Wind Chill: 73°   Ceiling: 9000
Heat Index: 73°   Visibility: 6mi
Dew Point: 63°   Wind: 5mph
Humidity: 69%   Direction: 100°E
Pressure: 30.15"   Gusts: NA
Location:  12.97°S, 28.64°E
Report Text: FWKI 210800Z 10004KT 9999 SCT028 BKN090 23/17 Q1021 NOSIG
Loading
Personal Weather Stations






























Interactive Weather Map New forecast layout! Learn more

10-Day Weather Forecast

Advertisements
Track Severe Weather on mobile